createdAt,value
2022-09-12T00:02:16.918Z,55.73
2022-09-12T00:04:43.423Z,55.84
2022-09-12T00:07:09.939Z,55.91
2022-09-12T00:09:36.396Z,55.92
2022-09-12T00:12:02.928Z,55.52
2022-09-12T00:14:54.607Z,55.84
2022-09-12T00:17:21.127Z,55.74
2022-09-12T00:19:47.783Z,55.51
2022-09-12T00:22:14.236Z,56.00
2022-09-12T00:24:42.631Z,55.90
2022-09-12T00:27:09.153Z,55.75
2022-09-12T00:29:35.704Z,55.97
2022-09-12T00:32:02.361Z,55.88
2022-09-12T00:34:28.818Z,56.04
2022-09-12T00:36:55.335Z,56.10
2022-09-12T00:39:21.939Z,56.33
2022-09-12T00:41:48.479Z,55.94
2022-09-12T00:44:24.334Z,56.31
2022-09-12T00:46:56.696Z,56.15
2022-09-12T00:49:27.048Z,56.51
2022-09-12T00:52:22.362Z,56.36
2022-09-12T00:55:01.506Z,56.41
2022-09-12T00:57:56.822Z,56.37
2022-09-12T01:00:25.097Z,56.42
2022-09-12T01:02:56.271Z,56.24
2022-09-12T01:05:24.682Z,56.42
2022-09-12T01:07:52.349Z,56.68
2022-09-12T01:10:19.745Z,56.51
2022-09-12T01:12:47.866Z,56.88
2022-09-12T01:15:15.659Z,56.63
2022-09-12T01:17:56.940Z,56.90
2022-09-12T01:20:41.353Z,56.63
2022-09-12T01:23:47.484Z,56.81
2022-09-12T01:26:47.146Z,56.92
2022-09-12T01:29:48.225Z,57.12
2022-09-12T01:32:38.661Z,57.14
2022-09-12T01:35:23.482Z,56.98
2022-09-12T01:37:53.915Z,57.13
2022-09-12T01:40:40.663Z,57.01
2022-09-12T01:43:26.658Z,57.09
2022-09-12T01:45:57.644Z,56.69
2022-09-12T01:48:37.051Z,56.56
2022-09-12T01:51:38.659Z,56.75
2022-09-12T01:54:15.740Z,56.78
2022-09-12T01:56:44.719Z,56.44
2022-09-12T01:59:35.092Z,56.96
2022-09-12T02:02:16.649Z,56.83
2022-09-12T02:05:09.532Z,56.58
2022-09-12T02:07:46.837Z,56.89
2022-09-12T02:10:22.438Z,56.70
2022-09-12T02:12:55.045Z,56.82
2022-09-12T02:15:34.136Z,56.70
2022-09-12T02:18:04.548Z,56.67
2022-09-12T02:20:51.030Z,56.87
2022-09-12T02:23:41.836Z,57.42
2022-09-12T02:26:17.608Z,57.05
2022-09-12T02:28:45.357Z,57.23
2022-09-12T02:31:14.842Z,57.27
2022-09-12T02:33:53.430Z,57.55
2022-09-12T02:36:34.548Z,57.82
2022-09-12T02:39:01.350Z,57.62
2022-09-12T02:41:28.525Z,57.82
2022-09-12T02:43:59.254Z,58.14
2022-09-12T02:46:33.369Z,58.15
2022-09-12T02:49:00.032Z,57.99
2022-09-12T02:51:27.186Z,58.23
2022-09-12T02:53:57.469Z,58.00
2022-09-12T02:56:27.978Z,57.72
2022-09-12T02:59:02.884Z,57.82
2022-09-12T03:01:38.192Z,57.51
2022-09-12T03:04:25.639Z,57.67
2022-09-12T03:07:08.421Z,57.57
2022-09-12T03:09:59.947Z,57.49
2022-09-12T03:12:27.033Z,57.40
2022-09-12T03:15:09.047Z,57.53
2022-09-12T03:17:46.874Z,58.00
2022-09-12T03:20:19.732Z,57.91
2022-09-12T03:22:55.743Z,57.95
2022-09-12T03:25:28.653Z,58.08
2022-09-12T03:28:06.191Z,57.92
2022-09-12T03:30:38.792Z,57.89
2022-09-12T03:33:05.326Z,58.30
2022-09-12T03:35:31.905Z,58.14
2022-09-12T03:37:58.337Z,58.29
2022-09-12T03:40:24.785Z,58.35
2022-09-12T03:42:51.237Z,58.19
2022-09-12T03:45:19.550Z,58.11
2022-09-12T03:47:46.020Z,58.47
2022-09-12T03:50:12.481Z,58.12
2022-09-12T03:52:39.007Z,58.45
2022-09-12T03:55:06.219Z,58.15
2022-09-12T03:57:32.673Z,58.59
2022-09-12T03:59:59.225Z,58.49
2022-09-12T04:02:25.810Z,58.59
2022-09-12T04:04:53.363Z,58.59
2022-09-12T04:07:20.219Z,58.77
2022-09-12T04:09:46.747Z,58.99
2022-09-12T04:12:14.026Z,58.85
2022-09-12T04:14:40.646Z,59.02
2022-09-12T04:17:07.191Z,58.75
2022-09-12T04:19:33.841Z,59.22
2022-09-12T04:22:00.406Z,58.95
2022-09-12T04:24:31.396Z,58.85
2022-09-12T04:26:58.168Z,59.15
2022-09-12T04:29:24.694Z,58.84
2022-09-12T04:31:51.199Z,59.13
2022-09-12T04:34:19.446Z,58.87
2022-09-12T04:36:45.908Z,58.99
2022-09-12T04:39:12.705Z,59.18
2022-09-12T04:41:41.746Z,59.05
2022-09-12T04:44:11.841Z,59.31
2022-09-12T04:46:41.450Z,59.28
2022-09-12T04:49:08.364Z,58.78
2022-09-12T04:51:36.891Z,58.79
2022-09-12T04:54:11.941Z,59.14
2022-09-12T04:56:42.847Z,58.97
2022-09-12T04:59:11.001Z,58.88
2022-09-12T05:01:37.747Z,58.79
2022-09-12T05:04:10.833Z,59.05
2022-09-12T05:06:38.288Z,58.89
2022-09-12T05:09:06.963Z,59.14
2022-09-12T05:12:03.303Z,59.31
2022-09-12T05:14:29.784Z,59.41
2022-09-12T05:16:59.942Z,59.35
2022-09-12T05:19:27.361Z,59.12
2022-09-12T05:21:53.826Z,59.24
2022-09-12T05:24:23.431Z,59.24
2022-09-12T05:26:50.231Z,59.64
2022-09-12T05:29:16.709Z,59.18
2022-09-12T05:31:43.293Z,59.46
2022-09-12T05:34:11.261Z,59.50
2022-09-12T05:36:38.561Z,59.76
2022-09-12T05:39:05.693Z,59.43
2022-09-12T05:41:33.793Z,59.60
2022-09-12T05:44:06.669Z,60.12
2022-09-12T05:46:41.664Z,59.91
2022-09-12T05:49:11.034Z,59.72
2022-09-12T05:51:42.754Z,59.49
2022-09-12T05:54:14.876Z,59.85
2022-09-12T05:56:43.941Z,60.04
2022-09-12T05:59:15.327Z,60.09
2022-09-12T06:01:42.167Z,59.84
2022-09-12T06:04:12.925Z,59.79
2022-09-12T06:06:47.012Z,59.86
2022-09-12T06:09:17.393Z,59.77
2022-09-12T06:11:45.119Z,59.83
2022-09-12T06:14:14.272Z,59.95
2022-09-12T06:16:40.954Z,60.04
2022-09-12T06:19:13.617Z,60.14
2022-09-12T06:21:40.351Z,60.31
2022-09-12T06:24:07.744Z,60.14
2022-09-12T06:26:34.701Z,60.50
2022-09-12T06:29:01.332Z,60.21
2022-09-12T06:31:31.203Z,60.37
2022-09-12T06:34:05.786Z,60.48
2022-09-12T06:36:36.605Z,60.13
2022-09-12T06:39:07.668Z,60.12
2022-09-12T06:41:34.673Z,60.42
2022-09-12T06:44:06.847Z,60.21
2022-09-12T06:46:33.839Z,60.22
2022-09-12T06:49:01.087Z,60.21
2022-09-12T06:51:29.497Z,60.06
2022-09-12T06:53:59.033Z,60.05
2022-09-12T06:56:27.304Z,59.96
2022-09-12T06:58:56.136Z,60.33
2022-09-12T07:01:25.753Z,60.33
2022-09-12T07:03:58.747Z,60.32
2022-09-12T07:06:32.053Z,60.36
2022-09-12T07:09:00.086Z,60.17
2022-09-12T07:11:29.269Z,60.64
2022-09-12T07:13:56.694Z,61.02
2022-09-12T07:16:23.857Z,60.92
2022-09-12T07:18:52.931Z,61.03
2022-09-12T07:21:20.719Z,61.13
2022-09-12T07:23:52.047Z,61.19
2022-09-12T07:26:19.206Z,61.17
2022-09-12T07:28:45.783Z,61.15
2022-09-12T07:31:16.122Z,61.04
2022-09-12T07:33:51.163Z,60.97
2022-09-12T07:36:23.216Z,61.21
2022-09-12T07:38:57.442Z,61.26
2022-09-12T07:41:27.094Z,60.85
2022-09-12T07:43:58.945Z,60.45
2022-09-12T07:46:27.335Z,60.40
2022-09-12T07:48:56.126Z,60.30
2022-09-12T07:51:23.842Z,59.94
2022-09-12T07:53:56.250Z,59.29
2022-09-12T07:56:27.338Z,59.29
2022-09-12T07:58:56.822Z,59.34
2022-09-12T08:01:23.457Z,59.04
2022-09-12T08:03:59.437Z,58.54
2022-09-12T08:06:27.756Z,58.29
2022-09-12T08:08:56.336Z,58.43
2022-09-12T08:11:23.957Z,58.05
2022-09-12T08:13:55.848Z,58.10
2022-09-12T08:16:25.802Z,57.74
2022-09-12T08:18:52.561Z,57.61
2022-09-12T08:21:21.604Z,57.31
2022-09-12T08:23:55.153Z,57.26
2022-09-12T08:26:23.430Z,57.07
2022-09-12T08:28:50.026Z,56.89
2022-09-12T08:31:18.772Z,56.58
2022-09-12T08:33:48.056Z,56.51
2022-09-12T08:36:21.255Z,56.25
2022-09-12T08:38:49.734Z,55.75
2022-09-12T08:41:19.273Z,55.46
2022-09-12T08:44:02.058Z,55.40
2022-09-12T08:47:04.133Z,55.25
2022-09-12T08:49:42.451Z,55.29
2022-09-12T08:52:34.418Z,54.80
2022-09-12T08:55:02.796Z,55.10
2022-09-12T08:57:29.511Z,54.74
2022-09-12T08:59:56.320Z,54.64
2022-09-12T09:02:40.777Z,54.19
2022-09-12T09:05:19.941Z,54.08
2022-09-12T09:08:19.683Z,54.17
2022-09-12T09:11:26.879Z,53.83
2022-09-12T09:14:42.868Z,53.82
2022-09-12T09:17:14.662Z,53.71
2022-09-12T09:19:50.782Z,53.71
2022-09-12T09:22:26.237Z,53.25
2022-09-12T09:25:00.509Z,53.30
2022-09-12T09:27:41.427Z,52.92
2022-09-12T09:30:14.309Z,52.85
2022-09-12T09:32:41.963Z,52.81
2022-09-12T09:35:44.819Z,52.55
2022-09-12T09:38:38.413Z,52.56
2022-09-12T09:41:19.924Z,51.93
2022-09-12T09:43:46.900Z,51.83
2022-09-12T09:46:14.165Z,51.40
2022-09-12T09:48:44.533Z,51.38
2022-09-12T09:51:11.879Z,51.03
2022-09-12T09:53:55.252Z,50.64
2022-09-12T09:56:40.166Z,50.20
2022-09-12T09:59:20.370Z,49.86
2022-09-12T10:02:03.413Z,49.82
2022-09-12T10:04:39.233Z,49.55
2022-09-12T10:07:19.267Z,48.96
2022-09-12T10:10:05.818Z,48.64
2022-09-12T10:12:32.325Z,48.76
2022-09-12T10:15:02.222Z,48.18
2022-09-12T10:17:40.135Z,48.38
2022-09-12T10:20:35.378Z,47.79
2022-09-12T10:23:40.311Z,47.53
2022-09-12T10:26:14.012Z,47.21
2022-09-12T10:28:45.915Z,47.09
2022-09-12T10:31:17.390Z,46.93
2022-09-12T10:33:53.688Z,46.65
2022-09-12T10:36:21.417Z,46.80
2022-09-12T10:38:55.527Z,46.45
2022-09-12T10:41:22.132Z,46.40
2022-09-12T10:43:53.104Z,45.92
2022-09-12T10:46:19.639Z,45.72
2022-09-12T10:48:50.197Z,45.25
2022-09-12T10:51:25.837Z,45.13
2022-09-12T10:54:00.150Z,44.69
2022-09-12T10:56:33.696Z,44.50
2022-09-12T10:59:24.973Z,44.37
2022-09-12T11:02:02.671Z,44.29
2022-09-12T11:04:56.067Z,43.50
2022-09-12T11:07:28.395Z,43.75
2022-09-12T11:10:03.684Z,43.19
2022-09-12T11:12:43.550Z,43.27
2022-09-12T11:15:36.196Z,42.82
2022-09-12T11:18:38.214Z,43.09
2022-09-12T11:21:11.074Z,42.91
2022-09-12T11:24:08.669Z,42.30
2022-09-12T11:26:50.486Z,41.82
2022-09-12T11:29:20.100Z,42.07
2022-09-12T11:32:05.205Z,41.79
2022-09-12T11:34:50.541Z,42.23
2022-09-12T11:37:23.705Z,41.79
2022-09-12T11:39:55.678Z,41.73
2022-09-12T11:42:30.134Z,41.44
2022-09-12T11:45:18.295Z,40.63
2022-09-12T11:47:50.431Z,40.31
2022-09-12T11:50:28.822Z,39.35
2022-09-12T11:53:01.594Z,39.23
2022-09-12T11:55:39.090Z,39.13
2022-09-12T11:58:08.566Z,38.95
2022-09-12T12:00:44.954Z,39.07
2022-09-12T12:03:43.369Z,38.57
2022-09-12T12:06:25.683Z,38.77
2022-09-12T12:08:52.494Z,38.86
2022-09-12T12:11:35.969Z,38.40
2022-09-12T12:14:06.098Z,38.11
2022-09-12T12:16:37.536Z,37.80
2022-09-12T12:19:29.082Z,37.46
2022-09-12T12:22:17.005Z,37.29
2022-09-12T12:25:04.676Z,37.54
2022-09-12T12:27:51.457Z,37.10
2022-09-12T12:30:29.922Z,37.15
2022-09-12T12:33:09.999Z,36.75
2022-09-12T12:35:37.008Z,36.89
2022-09-12T12:38:05.582Z,36.56
2022-09-12T12:40:32.790Z,36.65
2022-09-12T12:43:02.587Z,36.17
2022-09-12T12:45:31.008Z,36.04
2022-09-12T12:48:08.594Z,36.28
2022-09-12T12:50:35.437Z,36.01
2022-09-12T12:53:05.329Z,35.51
2022-09-12T12:55:35.228Z,35.56
2022-09-12T12:58:30.863Z,35.38
2022-09-12T13:01:22.961Z,35.64
2022-09-12T13:04:05.566Z,35.33
2022-09-12T13:06:41.506Z,35.58
2022-09-12T13:09:15.474Z,35.27
2022-09-12T13:11:42.078Z,35.29
2022-09-12T13:14:33.374Z,34.85
2022-09-12T13:17:04.234Z,35.11
2022-09-12T13:19:34.105Z,35.02
2022-09-12T13:22:09.164Z,34.42
2022-09-12T13:24:54.573Z,34.89
2022-09-12T13:27:23.835Z,34.90
2022-09-12T13:29:50.423Z,34.74
2022-09-12T13:32:18.261Z,34.57
2022-09-12T13:35:23.746Z,34.35
2022-09-12T13:37:53.199Z,34.22
2022-09-12T13:40:44.655Z,33.55
2022-09-12T13:43:17.252Z,33.65
2022-09-12T13:45:46.917Z,33.83
2022-09-12T13:48:19.214Z,33.67
2022-09-12T13:50:59.850Z,33.64
2022-09-12T13:53:40.441Z,34.12
2022-09-12T13:56:07.155Z,33.95
2022-09-12T13:58:37.237Z,33.86
2022-09-12T14:01:09.833Z,33.79
2022-09-12T14:04:15.142Z,33.87
2022-09-12T14:06:52.584Z,34.00
2022-09-12T14:09:26.890Z,33.93
2022-09-12T14:11:53.971Z,33.99
2022-09-12T14:14:33.930Z,33.80
2022-09-12T14:17:00.781Z,34.08
2022-09-12T14:19:29.086Z,34.14
2022-09-12T14:21:57.305Z,34.01
2022-09-12T14:24:30.882Z,33.96
2022-09-12T14:26:57.460Z,34.16
2022-09-12T14:29:25.230Z,34.19
2022-09-12T14:32:03.574Z,33.91
2022-09-12T14:34:32.077Z,34.42
2022-09-12T14:36:58.914Z,34.36
2022-09-12T14:39:31.483Z,34.28
2022-09-12T14:42:07.382Z,34.25
2022-09-12T14:44:35.549Z,34.44
2022-09-12T14:47:13.727Z,34.29
2022-09-12T14:49:41.606Z,34.42
2022-09-12T14:52:24.271Z,34.10
2022-09-12T14:55:02.554Z,34.23
2022-09-12T14:57:34.917Z,34.17
2022-09-12T15:00:13.510Z,34.50
2022-09-12T15:02:41.934Z,34.44
2022-09-12T15:05:08.506Z,34.62
2022-09-12T15:07:40.546Z,34.86
2022-09-12T15:10:22.056Z,34.86
2022-09-12T15:12:49.095Z,34.73
2022-09-12T15:15:18.287Z,34.99
2022-09-12T15:17:44.978Z,34.89
2022-09-12T15:20:13.291Z,34.57
2022-09-12T15:22:42.019Z,34.48
2022-09-12T15:25:13.386Z,34.65
2022-09-12T15:27:40.934Z,34.97
2022-09-12T15:30:10.203Z,35.01
2022-09-12T15:32:37.377Z,34.75
2022-09-12T15:35:25.753Z,35.08
2022-09-12T15:37:52.359Z,35.11
2022-09-12T15:40:19.033Z,35.01
2022-09-12T15:42:45.557Z,35.32
2022-09-12T15:45:31.293Z,35.32
2022-09-12T15:47:59.671Z,35.43
2022-09-12T15:50:28.098Z,35.57
2022-09-12T15:52:55.487Z,35.89
2022-09-12T15:55:30.050Z,35.81
2022-09-12T15:57:56.552Z,35.95
2022-09-12T16:00:24.380Z,36.08
2022-09-12T16:02:52.855Z,36.30
2022-09-12T16:05:25.276Z,36.25
2022-09-12T16:07:55.552Z,36.05
2022-09-12T16:10:26.416Z,35.78
2022-09-12T16:12:52.986Z,35.94
2022-09-12T16:15:23.414Z,35.85
2022-09-12T16:17:50.390Z,35.91
2022-09-12T16:20:17.955Z,35.73
2022-09-12T16:22:44.598Z,36.04
2022-09-12T16:25:11.078Z,36.02
2022-09-12T16:27:37.791Z,36.17
2022-09-12T16:30:08.954Z,36.04
2022-09-12T16:32:35.581Z,36.16
2022-09-12T16:35:02.212Z,35.99
2022-09-12T16:37:28.901Z,36.20
2022-09-12T16:39:55.624Z,36.47
2022-09-12T16:42:22.295Z,36.30
2022-09-12T16:44:48.782Z,36.65
2022-09-12T16:47:15.668Z,36.63
2022-09-12T16:49:42.230Z,36.77
2022-09-12T16:52:08.785Z,36.90
2022-09-12T16:54:37.002Z,36.97
2022-09-12T16:57:05.245Z,37.42
2022-09-12T16:59:32.422Z,37.75
2022-09-12T17:01:59.023Z,37.60
2022-09-12T17:04:27.279Z,38.02
2022-09-12T17:06:54.024Z,37.97
2022-09-12T17:09:21.770Z,38.26
2022-09-12T17:11:49.553Z,38.45
2022-09-12T17:14:16.767Z,38.59
2022-09-12T17:16:50.782Z,38.57
2022-09-12T17:19:19.876Z,38.74
2022-09-12T17:21:50.066Z,38.68
2022-09-12T17:24:18.749Z,39.18
2022-09-12T17:26:45.862Z,39.36
2022-09-12T17:29:13.818Z,39.43
2022-09-12T17:31:41.609Z,39.68
2022-09-12T17:34:14.106Z,39.99
2022-09-12T17:36:43.985Z,40.00
2022-09-12T17:39:11.643Z,40.07
2022-09-12T17:41:38.478Z,40.18
2022-09-12T17:44:07.517Z,40.40
2022-09-12T17:46:37.620Z,40.62
2022-09-12T17:49:07.627Z,40.64
2022-09-12T17:51:34.660Z,40.73
2022-09-12T17:54:22.232Z,41.14
2022-09-12T17:56:49.748Z,41.02
2022-09-12T17:59:19.754Z,41.38
2022-09-12T18:02:05.212Z,41.40
2022-09-12T18:04:31.770Z,41.37
2022-09-12T18:07:00.276Z,41.58
2022-09-12T18:09:27.897Z,41.92
2022-09-12T18:11:54.575Z,42.31
2022-09-12T18:14:21.828Z,42.35
2022-09-12T18:16:49.146Z,42.73
2022-09-12T18:19:16.138Z,42.64
2022-09-12T18:21:42.802Z,42.43
2022-09-12T18:24:46.791Z,42.69
2022-09-12T18:27:13.923Z,42.44
2022-09-12T18:29:40.422Z,43.21
2022-09-12T18:32:07.074Z,42.98
2022-09-12T18:34:38.034Z,43.13
2022-09-12T18:37:06.906Z,43.25
2022-09-12T18:39:33.381Z,43.39
2022-09-12T18:41:59.863Z,43.67
2022-09-12T18:44:28.182Z,43.67
2022-09-12T18:46:54.873Z,44.04
2022-09-12T18:49:21.432Z,44.03
2022-09-12T18:51:47.951Z,44.04
2022-09-12T18:54:15.448Z,44.26
2022-09-12T18:56:43.979Z,44.51
2022-09-12T18:59:12.847Z,44.53
2022-09-12T19:01:39.882Z,44.12
2022-09-12T19:04:09.759Z,44.43
2022-09-12T19:06:39.559Z,44.43
2022-09-12T19:09:08.197Z,44.37
2022-09-12T19:11:37.259Z,44.58
2022-09-12T19:14:07.547Z,44.49
2022-09-12T19:16:34.679Z,44.63
2022-09-12T19:19:02.552Z,44.89
2022-09-12T19:21:30.922Z,45.11
2022-09-12T19:24:01.793Z,45.32
2022-09-12T19:26:29.210Z,45.46
2022-09-12T19:28:56.394Z,45.47
2022-09-12T19:31:24.333Z,45.56
2022-09-12T19:33:52.853Z,45.79
2022-09-12T19:36:43.783Z,45.88
2022-09-12T19:39:08.660Z,45.98
2022-09-12T19:41:35.279Z,46.25
2022-09-12T19:44:02.169Z,46.61
2022-09-12T19:46:28.644Z,46.30
2022-09-12T19:48:55.389Z,46.83
2022-09-12T19:51:23.944Z,46.81
2022-09-12T19:53:53.854Z,46.90
2022-09-12T19:56:21.063Z,47.19
2022-09-12T19:58:53.433Z,47.09
2022-09-12T20:01:29.738Z,46.93
2022-09-12T20:03:59.267Z,47.23
2022-09-12T20:06:26.820Z,47.39
2022-09-12T20:08:53.720Z,47.42
2022-09-12T20:11:22.013Z,47.62
2022-09-12T20:13:53.101Z,47.92
2022-09-12T20:16:23.322Z,47.72
2022-09-12T20:18:59.787Z,48.07
2022-09-12T20:21:31.705Z,47.93
2022-09-12T20:24:03.245Z,47.99
2022-09-12T20:26:29.912Z,48.22
2022-09-12T20:28:56.428Z,48.55
2022-09-12T20:31:22.957Z,48.69
2022-09-12T20:33:51.796Z,48.85
2022-09-12T20:36:20.459Z,48.95
2022-09-12T20:38:49.030Z,49.29
2022-09-12T20:41:16.497Z,49.02
2022-09-12T20:43:43.730Z,49.37
2022-09-12T20:46:11.429Z,49.14
2022-09-12T20:48:39.104Z,49.68
2022-09-12T20:51:06.479Z,49.65
2022-09-12T20:53:35.563Z,49.80
2022-09-12T20:56:03.719Z,49.54
2022-09-12T20:58:30.170Z,49.90
2022-09-12T21:00:57.143Z,49.96
2022-09-12T21:03:27.496Z,49.99
2022-09-12T21:05:54.107Z,50.06
2022-09-12T21:08:22.524Z,50.06
2022-09-12T21:10:48.980Z,50.11
2022-09-12T21:13:15.409Z,50.13
2022-09-12T21:15:42.853Z,50.24
2022-09-12T21:18:09.359Z,50.05
2022-09-12T21:20:35.920Z,50.45
2022-09-12T21:23:02.619Z,50.50
2022-09-12T21:25:30.019Z,50.56
2022-09-12T21:27:56.536Z,50.48
2022-09-12T21:30:23.064Z,50.49
2022-09-12T21:32:49.560Z,50.41
2022-09-12T21:35:16.116Z,50.77
2022-09-12T21:37:42.598Z,50.71
2022-09-12T21:40:09.417Z,50.75
2022-09-12T21:42:35.912Z,51.13
2022-09-12T21:45:02.454Z,51.15
2022-09-12T21:47:29.041Z,51.33
2022-09-12T21:49:55.487Z,51.75
2022-09-12T21:52:22.024Z,51.52
2022-09-12T21:54:52.912Z,51.67
2022-09-12T21:57:19.419Z,52.04
2022-09-12T21:59:45.860Z,52.05
2022-09-12T22:02:12.504Z,51.66
2022-09-12T22:04:40.781Z,51.97
2022-09-12T22:07:08.036Z,51.71
2022-09-12T22:09:35.167Z,51.97
2022-09-12T22:12:02.336Z,52.19
2022-09-12T22:14:29.412Z,52.21
2022-09-12T22:16:56.721Z,52.32
2022-09-12T22:19:23.343Z,52.40
2022-09-12T22:22:08.785Z,52.63
2022-09-12T22:24:36.633Z,52.64
2022-09-12T22:27:06.237Z,52.80
2022-09-12T22:29:33.765Z,52.78
2022-09-12T22:32:00.805Z,52.86
2022-09-12T22:34:28.989Z,53.06
2022-09-12T22:36:56.618Z,52.96
2022-09-12T22:39:23.825Z,52.96
2022-09-12T22:41:50.937Z,53.09
2022-09-12T22:44:21.470Z,53.26
2022-09-12T22:46:48.290Z,53.47
2022-09-12T22:49:15.069Z,53.30
2022-09-12T22:51:41.768Z,53.53
2022-09-12T22:54:10.171Z,53.34
2022-09-12T22:56:36.637Z,53.08
2022-09-12T22:59:03.414Z,53.58
2022-09-12T23:01:31.803Z,53.52
2022-09-12T23:03:58.998Z,53.67
2022-09-12T23:06:25.847Z,53.74
2022-09-12T23:08:52.486Z,53.47
2022-09-12T23:11:21.408Z,53.70
2022-09-12T23:13:50.863Z,53.54
2022-09-12T23:16:20.625Z,53.52
2022-09-12T23:18:47.983Z,53.66
2022-09-12T23:21:17.073Z,53.87
2022-09-12T23:23:47.068Z,54.04
2022-09-12T23:26:21.931Z,53.92
2022-09-12T23:28:54.194Z,54.01
2022-09-12T23:31:23.106Z,54.14
2022-09-12T23:33:55.746Z,54.17
2022-09-12T23:36:23.251Z,54.29
2022-09-12T23:38:50.272Z,54.28
2022-09-12T23:41:18.709Z,54.38
2022-09-12T23:43:47.066Z,54.08
2022-09-12T23:46:14.869Z,54.25
2022-09-12T23:48:42.633Z,54.06
2022-09-12T23:51:10.119Z,54.31
2022-09-12T23:53:40.055Z,54.62
2022-09-12T23:56:07.032Z,54.22
2022-09-12T23:58:33.561Z,54.47
